Time;durP1;ratioP1;P1;durP2;ratioP2;P2;SDS_P1;SDS_P2;PMS_P1;PMS_P2;Temp;Humidity;BMP_temperature;BMP_pressure;BME280_temperature;BME280_humidity;BME280_pressure;Samples;Min_cycle;Max_cycle;Signal;HPM_P1;HPM_P2
2023/03/05 00:01:13;;;;;;;4.03;1.65;;;;;;;1.55;61.78;101216.22;4992268;28;20064;-54
2023/03/05 00:03:40;;;;;;;4.55;1.60;;;;;;;1.56;61.92;101212.75;4995698;28;20092;-54
2023/03/05 00:06:05;;;;;;;6.10;1.90;;;;;;;1.60;61.72;101209.22;4995876;28;20038;-57
2023/03/05 00:08:32;;;;;;;4.82;1.77;;;;;;;1.60;61.79;101209.22;4994066;28;20066;-53
2023/03/05 00:11:07;;;;;;;3.42;1.50;;;;;;;1.57;61.96;101204.09;4995985;28;20611;-58
2023/03/05 00:13:33;;;;;;;2.50;1.27;;;;;;;1.55;61.95;101192.88;4997597;28;20036;-56
2023/03/05 00:16:02;;;;;;;5.68;1.27;;;;;;;1.58;61.98;101192.84;4995669;28;20040;-58
2023/03/05 00:18:29;;;;;;;5.13;1.90;;;;;;;1.58;62.29;101191.09;4995546;28;20045;-57
2023/03/05 00:20:54;;;;;;;5.90;1.95;;;;;;;1.55;62.47;101185.94;4999382;28;20043;-55
2023/03/05 00:23:20;;;;;;;2.53;1.23;;;;;;;1.56;62.33;101186.81;4989453;28;20123;-54
2023/03/05 00:25:45;;;;;;;5.63;1.90;;;;;;;1.56;62.78;101179.88;4992848;28;20034;-55
2023/03/05 00:28:11;;;;;;;5.88;1.95;;;;;;;1.58;62.64;101185.91;4995871;28;20040;-54
2023/03/05 00:30:37;;;;;;;5.70;2.35;;;;;;;1.59;62.79;101169.47;4997374;28;20046;-55
2023/03/05 00:33:03;;;;;;;8.20;2.72;;;;;;;1.58;63.35;101170.34;4999489;28;20033;-53
2023/03/05 00:35:28;;;;;;;11.40;3.60;;;;;;;1.57;63.77;101163.44;4994768;28;20049;-53
2023/03/05 00:37:54;;;;;;;10.25;3.75;;;;;;;1.57;64.27;101158.25;4998034;28;20041;-54
2023/03/05 00:40:20;;;;;;;12.43;3.75;;;;;;;1.58;64.42;101159.97;4993861;28;20135;-53
2023/03/05 00:42:45;;;;;;;15.63;4.20;;;;;;;1.59;64.81;101151.31;5014302;28;20104;-54
2023/03/05 00:45:11;;;;;;;14.43;4.00;;;;;;;1.59;65.06;101153.91;5013617;28;20040;-53
2023/03/05 00:47:37;;;;;;;8.50;3.30;;;;;;;1.57;64.74;101147.03;4993249;28;20046;-55
2023/03/05 00:50:04;;;;;;;9.10;3.55;;;;;;;1.60;64.74;101150.41;5000734;28;20030;-57
2023/03/05 00:52:29;;;;;;;14.63;4.70;;;;;;;1.63;65.14;101147.78;4995252;28;20028;-57
2023/03/05 00:54:55;;;;;;;11.25;5.43;;;;;;;1.63;64.72;101137.41;5004240;28;20030;-56
2023/03/05 00:57:20;;;;;;;10.15;3.78;;;;;;;1.62;64.86;101133.09;4999358;28;20684;-55
2023/03/05 00:59:46;;;;;;;6.75;2.58;;;;;;;1.60;64.71;101131.38;4994323;28;20045;-55
2023/03/05 01:02:12;;;;;;;4.90;2.47;;;;;;;1.64;64.44;101130.47;5001818;28;20052;-53
2023/03/05 01:04:37;;;;;;;6.25;2.22;;;;;;;1.61;64.27;101120.13;5000583;28;20049;-56
2023/03/05 01:07:03;;;;;;;4.78;1.77;;;;;;;1.64;63.48;101120.97;5000769;28;20051;-55
2023/03/05 01:09:29;;;;;;;9.85;2.08;;;;;;;1.67;63.66;101114.88;5002768;28;20060;-57
2023/03/05 01:11:55;;;;;;;5.05;1.55;;;;;;;1.75;62.88;101104.38;5014230;28;20451;-55
2023/03/05 01:14:20;;;;;;;5.15;1.15;;;;;;;1.82;63.23;101095.59;4997449;28;20484;-55
2023/03/05 01:16:46;;;;;;;5.10;1.35;;;;;;;1.87;62.37;101092.97;4999153;28;20026;-53
2023/03/05 01:19:14;;;;;;;4.75;1.60;;;;;;;1.93;62.01;101088.53;4998396;28;20054;-55
2023/03/05 01:21:40;;;;;;;0.95;0.77;;;;;;;1.99;61.73;101082.38;5002855;28;20076;-53
2023/03/05 01:24:06;;;;;;;1.92;1.08;;;;;;;2.07;61.72;101085.69;5000495;28;20034;-56
2023/03/05 01:26:32;;;;;;;7.93;1.25;;;;;;;2.11;61.44;101086.50;4998839;28;20084;-55
2023/03/05 01:28:58;;;;;;;3.17;0.90;;;;;;;2.12;61.23;101081.28;4998339;28;20060;-56
2023/03/05 01:31:23;;;;;;;4.20;1.55;;;;;;;2.13;61.39;101085.59;5001129;28;20088;-55
2023/03/05 01:33:55;;;;;;;5.93;1.00;;;;;;;2.17;61.25;101085.56;5004807;28;20749;-58
2023/03/05 01:36:22;;;;;;;2.67;1.00;;;;;;;2.15;61.23;101082.13;5003626;28;20040;-53
2023/03/05 01:38:47;;;;;;;5.18;1.08;;;;;;;2.10;61.65;101077.84;4998242;28;20539;-54
2023/03/05 01:41:14;;;;;;;7.72;1.17;;;;;;;2.06;62.10;101078.78;4997061;28;20551;-54
2023/03/05 01:43:41;;;;;;;2.55;1.25;;;;;;;1.99;62.53;101074.59;5004634;28;20041;-55
2023/03/05 01:46:35;;;;;;;3.20;1.25;;;;;;;1.86;63.41;101080.88;4993744;28;20021;-56
2023/03/05 01:49:13;;;;;;;3.70;1.10;;;;;;;1.77;63.61;101074.94;5003493;28;20107;-59
2023/03/05 01:51:50;;;;;;;4.50;1.35;;;;;;;1.72;64.00;101068.97;4996030;28;20100;-54
2023/03/05 01:54:19;;;;;;;3.17;1.25;;;;;;;1.64;65.12;101061.31;4995064;28;20480;-53
2023/03/05 01:56:47;;;;;;;5.28;1.30;;;;;;;1.57;65.60;101044.09;4998140;28;20465;-54
2023/03/05 01:59:14;;;;;;;3.97;1.30;;;;;;;1.48;66.50;101037.31;4997872;28;20484;-53
2023/03/05 02:01:45;;;;;;;3.03;1.17;;;;;;;1.49;66.77;101038.19;4998725;28;20057;-55
2023/03/05 02:04:15;;;;;;;5.00;1.80;;;;;;;1.45;66.86;101050.31;4999778;28;20042;-53
2023/03/05 02:06:42;;;;;;;6.53;1.25;;;;;;;1.47;67.22;101026.97;5000995;28;20033;-57
2023/03/05 02:09:08;;;;;;;4.22;1.27;;;;;;;1.48;67.31;101023.50;4998342;28;20538;-54
2023/03/05 02:11:34;;;;;;;4.57;1.35;;;;;;;1.50;67.56;101017.41;5002998;28;20026;-54
2023/03/05 02:14:01;;;;;;;3.25;1.05;;;;;;;1.46;67.92;101015.75;4998405;28;20040;-54
2023/03/05 02:16:34;;;;;;;3.38;1.52;;;;;;;1.48;68.07;101011.38;4996399;28;20022;-57
2023/03/05 02:19:04;;;;;;;5.10;1.52;;;;;;;1.52;67.89;101020.84;5003370;28;20033;-55
2023/03/05 02:21:44;;;;;;;5.28;1.60;;;;;;;1.50;68.39;101016.56;5001539;28;20060;-54
2023/03/05 02:24:16;;;;;;;3.65;1.60;;;;;;;1.47;68.66;101004.47;5001147;28;20116;-55
2023/03/05 02:26:43;;;;;;;2.60;1.33;;;;;;;1.47;68.73;100998.47;5001015;28;20398;-53
2023/03/05 02:29:13;;;;;;;3.67;1.33;;;;;;;1.44;69.24;100996.75;4994151;28;20420;-57
2023/03/05 02:31:38;;;;;;;4.07;1.10;;;;;;;1.45;69.08;100997.63;5002182;28;20032;-54
2023/03/05 02:34:04;;;;;;;2.53;1.00;;;;;;;1.46;69.13;100995.00;4994442;28;20037;-55
2023/03/05 02:36:29;;;;;;;4.15;1.38;;;;;;;1.48;69.23;100990.63;4993562;28;20043;-55
2023/03/05 02:38:56;;;;;;;2.15;1.00;;;;;;;1.47;69.14;100986.34;4999328;28;20041;-56
2023/03/05 02:41:22;;;;;;;3.92;1.30;;;;;;;1.49;68.99;100983.72;4994106;28;20030;-55
2023/03/05 02:43:47;;;;;;;4.60;1.83;;;;;;;1.48;68.82;100982.84;4999243;28;20092;-53
2023/03/05 02:46:13;;;;;;;10.60;2.72;;;;;;;1.45;69.57;100977.72;5000454;28;20040;-53
2023/03/05 02:48:38;;;;;;;3.22;1.73;;;;;;;1.42;69.56;100974.31;4994693;28;20063;-54
2023/03/05 02:51:05;;;;;;;9.48;2.58;;;;;;;1.40;69.50;100973.50;4997712;28;20232;-53
2023/03/05 02:53:31;;;;;;;3.97;1.70;;;;;;;1.38;69.94;100973.53;4995448;28;20034;-54
2023/03/05 02:55:56;;;;;;;6.72;2.20;;;;;;;1.37;70.27;100969.22;5000864;28;20037;-56
2023/03/05 02:58:22;;;;;;;7.60;2.75;;;;;;;1.37;69.80;100964.03;4995017;28;20040;-54
2023/03/05 03:00:48;;;;;;;7.72;2.17;;;;;;;1.41;69.88;100959.63;4998776;28;20034;-54
2023/03/05 03:03:13;;;;;;;8.43;2.10;;;;;;;1.42;70.25;100957.03;4996453;28;20126;-60
2023/03/05 03:05:39;;;;;;;6.80;1.98;;;;;;;1.43;70.23;100952.69;5002632;28;20058;-59
2023/03/05 03:08:04;;;;;;;4.47;1.83;;;;;;;1.44;70.25;100947.47;4994675;28;20173;-54
2023/03/05 03:10:30;;;;;;;10.38;2.05;;;;;;;1.43;70.38;100945.78;5003171;28;20382;-53
2023/03/05 03:12:56;;;;;;;5.93;2.15;;;;;;;1.38;70.19;100939.81;4998112;28;20115;-54
2023/03/05 03:15:21;;;;;;;4.30;1.70;;;;;;;1.38;70.39;100942.41;4997048;28;20055;-57
2023/03/05 03:17:47;;;;;;;7.78;1.75;;;;;;;1.35;70.50;100930.34;4995319;28;20108;-56
2023/03/05 03:20:15;;;;;;;7.15;2.60;;;;;;;1.34;70.77;100940.72;5004123;28;20100;-53
2023/03/05 03:22:42;;;;;;;6.90;2.47;;;;;;;1.37;70.81;100940.69;4987496;28;20116;-56
2023/03/05 03:25:09;;;;;;;8.25;2.67;;;;;;;1.42;70.66;100930.25;5000822;28;20047;-56
2023/03/05 03:27:35;;;;;;;9.65;2.15;;;;;;;1.44;70.43;100924.13;4990920;28;20036;-55
2023/03/05 03:30:03;;;;;;;5.75;1.75;;;;;;;1.47;70.28;100918.91;4995576;28;20029;-57
2023/03/05 03:32:30;;;;;;;10.55;2.38;;;;;;;1.47;70.01;100912.88;5000572;28;20028;-60
2023/03/05 03:34:56;;;;;;;5.07;2.10;;;;;;;1.48;69.92;100912.00;4999169;28;20036;-57
2023/03/05 03:37:21;;;;;;;5.10;1.90;;;;;;;1.52;70.11;100905.84;5000778;28;20120;-59
2023/03/05 03:39:47;;;;;;;6.00;2.83;;;;;;;1.54;70.09;100911.03;5004221;28;20068;-59
2023/03/05 03:42:15;;;;;;;5.85;1.35;;;;;;;1.50;69.70;100905.03;4998848;28;20829;-57
2023/03/05 03:44:40;;;;;;;10.15;1.48;;;;;;;1.52;69.48;100905.84;4996287;28;20101;-56
2023/03/05 03:47:06;;;;;;;9.25;1.88;;;;;;;1.54;69.68;100901.50;5002753;28;20046;-53
2023/03/05 03:49:31;;;;;;;9.77;1.50;;;;;;;1.53;69.71;100897.19;4991947;28;20065;-57
2023/03/05 03:51:57;;;;;;;4.85;1.15;;;;;;;1.54;69.30;100888.53;4997962;28;20048;-55
2023/03/05 03:54:23;;;;;;;9.98;2.42;;;;;;;1.55;69.24;100892.84;4996655;28;20490;-58
2023/03/05 03:56:49;;;;;;;10.80;2.30;;;;;;;1.57;69.09;100892.81;4994131;28;20244;-57
2023/03/05 03:59:14;;;;;;;7.60;1.60;;;;;;;1.56;68.73;100886.75;5016568;28;20094;-56
2023/03/05 04:01:40;;;;;;;6.93;2.20;;;;;;;1.58;68.58;100885.00;5006672;28;20155;-57
2023/03/05 04:04:06;;;;;;;10.23;1.80;;;;;;;1.57;68.70;100888.47;5006624;28;20043;-57
2023/03/05 04:06:32;;;;;;;6.97;1.58;;;;;;;1.60;68.39;100882.38;5002267;28;20040;-57
2023/03/05 04:08:58;;;;;;;7.47;1.55;;;;;;;1.59;68.27;100881.53;4997328;28;20560;-57
2023/03/05 04:11:24;;;;;;;7.65;1.52;;;;;;;1.59;68.33;100886.72;5001047;28;20034;-57
2023/03/05 04:13:50;;;;;;;6.63;1.60;;;;;;;1.58;68.36;100881.56;4996609;28;20049;-57
2023/03/05 04:16:16;;;;;;;7.25;1.65;;;;;;;1.59;67.84;100881.53;4999329;28;20042;-55
2023/03/05 04:18:42;;;;;;;10.73;1.35;;;;;;;1.58;67.58;100871.19;4996442;28;20047;-53
2023/03/05 04:21:08;;;;;;;9.52;1.33;;;;;;;1.59;67.77;100867.72;4999804;28;20072;-54
2023/03/05 04:23:33;;;;;;;10.68;2.20;;;;;;;1.59;67.97;100865.13;4998812;28;20048;-53
2023/03/05 04:25:59;;;;;;;4.70;0.93;;;;;;;1.59;67.74;100865.13;5004513;28;20134;-54
2023/03/05 04:28:25;;;;;;;11.95;2.28;;;;;;;1.57;67.56;100870.31;5006058;28;20033;-56
2023/03/05 04:30:50;;;;;;;5.82;1.33;;;;;;;1.54;67.64;100861.75;5001854;28;20049;-54
2023/03/05 04:33:16;;;;;;;6.80;1.50;;;;;;;1.50;67.48;100856.63;5001212;28;20469;-53
2023/03/05 04:35:41;;;;;;;4.97;1.33;;;;;;;1.50;67.37;100860.97;4995400;28;20585;-57
2023/03/05 04:38:07;;;;;;;7.47;1.40;;;;;;;1.50;67.64;100853.19;5004950;28;20626;-57
2023/03/05 04:40:33;;;;;;;7.00;1.55;;;;;;;1.48;67.20;100850.59;4992983;28;20711;-56
2023/03/05 04:42:59;;;;;;;9.57;1.20;;;;;;;1.47;67.34;100842.84;5019797;28;20063;-58
2023/03/05 04:45:24;;;;;;;6.22;1.65;;;;;;;1.46;67.40;100843.72;4998718;28;20644;-58
2023/03/05 04:47:50;;;;;;;10.52;1.98;;;;;;;1.42;67.35;100852.44;5004543;28;20033;-57
2023/03/05 04:50:15;;;;;;;7.07;1.83;;;;;;;1.39;67.25;100843.00;5000970;28;20025;-55
2023/03/05 04:52:43;;;;;;;8.55;1.10;;;;;;;1.39;67.10;100836.94;4999932;28;20058;-53
2023/03/05 04:55:09;;;;;;;6.70;1.27;;;;;;;1.39;66.93;100839.53;5004764;28;20037;-53
2023/03/05 04:57:35;;;;;;;8.48;2.15;;;;;;;1.43;67.30;100843.78;5006241;28;20052;-54
2023/03/05 05:00:04;;;;;;;6.15;1.42;;;;;;;1.42;67.09;100837.75;5009978;28;20045;-55
2023/03/05 05:02:29;;;;;;;6.53;1.05;;;;;;;1.44;66.72;100832.53;4989427;28;20151;-53
2023/03/05 05:04:55;;;;;;;6.00;1.42;;;;;;;1.46;66.78;100836.78;4995283;28;20040;-54
2023/03/05 05:07:20;;;;;;;9.23;1.45;;;;;;;1.46;66.46;100828.19;4990531;28;20037;-59
2023/03/05 05:09:46;;;;;;;14.57;1.75;;;;;;;1.44;66.43;100823.00;5001124;28;20075;-58
2023/03/05 05:12:11;;;;;;;6.75;1.23;;;;;;;1.44;66.19;100825.59;4998938;28;20052;-55
2023/03/05 05:14:37;;;;;;;6.72;1.88;;;;;;;1.46;66.16;100830.78;5003659;28;20040;-57
2023/03/05 05:17:04;;;;;;;7.72;1.52;;;;;;;1.43;65.92;100821.31;5001485;28;20099;-54
2023/03/05 05:19:33;;;;;;;5.72;0.98;;;;;;;1.44;65.89;100820.41;4999367;28;20757;-58
2023/03/05 05:21:59;;;;;;;7.32;1.23;;;;;;;1.46;65.90;100823.81;4998044;28;20514;-55
2023/03/05 05:24:25;;;;;;;4.40;0.85;;;;;;;1.49;66.33;100822.94;4999367;28;20163;-58
2023/03/05 05:26:53;;;;;;;5.45;1.50;;;;;;;1.50;65.72;100824.66;4999695;28;20648;-54
2023/03/05 05:29:19;;;;;;;10.05;1.42;;;;;;;1.51;65.77;100827.19;5001109;28;20045;-56
2023/03/05 05:31:45;;;;;;;4.45;1.10;;;;;;;1.53;65.95;100827.16;5005056;28;20078;-58
2023/03/05 05:34:10;;;;;;;4.80;1.23;;;;;;;1.51;65.87;100831.56;5001220;28;20053;-53
2023/03/05 05:36:36;;;;;;;3.83;1.00;;;;;;;1.47;65.55;100828.13;4998568;28;20069;-56
2023/03/05 05:39:01;;;;;;;9.10;1.48;;;;;;;1.46;65.80;100823.00;5001155;28;20030;-53
2023/03/05 05:41:27;;;;;;;11.52;1.15;;;;;;;1.44;65.98;100835.13;4999359;28;20055;-59
2023/03/05 05:43:52;;;;;;;6.47;1.63;;;;;;;1.42;65.63;100823.91;4991892;28;20055;-57
2023/03/05 05:46:19;;;;;;;6.28;1.30;;;;;;;1.43;66.03;100828.22;5000536;28;20043;-55
2023/03/05 05:48:45;;;;;;;4.93;1.52;;;;;;;1.47;65.37;100832.47;4997716;28;20156;-59
2023/03/05 05:51:19;;;;;;;7.72;2.00;;;;;;;1.47;65.83;100830.72;4999941;28;20040;-57
2023/03/05 05:53:45;;;;;;;8.68;1.08;;;;;;;1.46;65.76;100834.19;4996451;28;20066;-53
2023/03/05 05:56:12;;;;;;;5.05;0.98;;;;;;;1.45;65.54;100827.31;5000490;28;20026;-59
2023/03/05 05:58:40;;;;;;;7.65;1.65;;;;;;;1.49;65.43;100835.91;5003227;28;20053;-57
2023/03/05 06:01:32;;;;;;;7.38;1.90;;;;;;;1.47;65.63;100835.91;4998416;28;20060;-55
2023/03/05 06:03:58;;;;;;;5.55;1.10;;;;;;;1.52;65.63;100834.09;4994926;28;20057;-57
2023/03/05 06:06:26;;;;;;;10.10;1.70;;;;;;;1.56;65.81;100836.66;4999117;28;20042;-61
2023/03/05 06:08:52;;;;;;;5.30;1.55;;;;;;;1.60;65.39;100838.28;5000558;28;20044;-60
2023/03/05 06:11:18;;;;;;;9.35;1.70;;;;;;;1.64;65.11;100830.44;4997126;28;20037;-56
2023/03/05 06:13:44;;;;;;;11.73;1.70;;;;;;;1.66;65.12;100835.56;5003987;28;20517;-52
2023/03/05 06:16:13;;;;;;;6.40;1.23;;;;;;;1.68;64.99;100829.47;4999839;28;20026;-55
2023/03/05 06:18:39;;;;;;;7.30;1.52;;;;;;;1.72;65.09;100832.88;4998177;28;20526;-58
2023/03/05 06:21:10;;;;;;;11.98;1.58;;;;;;;1.75;65.15;100835.38;5001422;28;20049;-56
2023/03/05 06:23:36;;;;;;;4.15;1.42;;;;;;;1.76;65.75;100837.09;4999635;28;20048;-53
2023/03/05 06:26:04;;;;;;;15.93;1.52;;;;;;;1.79;65.35;100844.81;4997513;28;20461;-55
2023/03/05 06:28:30;;;;;;;9.48;1.73;;;;;;;1.79;65.41;100836.22;4998797;28;20049;-57
2023/03/05 06:31:00;;;;;;;12.43;1.90;;;;;;;1.79;65.55;100837.03;4995580;28;20063;-54
2023/03/05 06:33:26;;;;;;;4.15;1.10;;;;;;;1.79;65.59;100831.84;4996518;28;20041;-54
2023/03/05 06:35:51;;;;;;;5.72;1.83;;;;;;;1.81;65.61;100832.69;5002195;28;20040;-60
2023/03/05 06:38:17;;;;;;;4.40;1.40;;;;;;;1.82;65.69;100836.13;4998125;28;20108;-57
2023/03/05 06:40:42;;;;;;;9.40;1.58;;;;;;;1.82;65.47;100837.00;4999758;28;20100;-58
2023/03/05 06:43:08;;;;;;;4.20;1.10;;;;;;;1.81;65.18;100834.44;4990802;28;20151;-54
2023/03/05 06:45:33;;;;;;;3.55;1.10;;;;;;;1.80;65.21;100837.91;5010052;28;20053;-57
2023/03/05 06:47:59;;;;;;;2.97;1.08;;;;;;;1.78;65.05;100839.69;4998206;28;20025;-54
2023/03/05 06:50:24;;;;;;;5.10;1.00;;;;;;;1.75;64.94;100845.75;4994769;28;20127;-54
2023/03/05 06:52:50;;;;;;;12.05;3.33;;;;;;;1.74;65.05;100849.25;5000840;28;20046;-55
2023/03/05 06:55:16;;;;;;;4.72;0.95;;;;;;;1.75;64.53;100835.38;5001436;28;20032;-56
2023/03/05 06:57:42;;;;;;;1.48;0.80;;;;;;;1.75;64.89;100845.75;5002981;28;20065;-57
2023/03/05 07:00:09;;;;;;;3.78;1.15;;;;;;;1.74;63.80;100848.41;4989609;28;20059;-58
2023/03/05 07:02:36;;;;;;;3.85;1.10;;;;;;;1.71;64.02;100848.44;5001734;28;20050;-58
2023/03/05 07:05:02;;;;;;;7.05;1.38;;;;;;;1.66;64.05;100851.97;5007856;28;20031;-57
2023/03/05 07:07:27;;;;;;;9.75;1.65;;;;;;;1.67;63.36;100848.50;4998653;28;20504;-57
2023/03/05 07:09:53;;;;;;;7.07;0.93;;;;;;;1.68;63.64;100867.53;5008068;28;20063;-59
2023/03/05 07:12:18;;;;;;;3.90;0.90;;;;;;;1.68;63.67;100846.78;4998733;28;20034;-56
2023/03/05 07:14:44;;;;;;;6.18;1.02;;;;;;;1.61;64.31;100852.97;5000011;28;20102;-58
2023/03/05 07:17:09;;;;;;;3.83;0.77;;;;;;;1.57;64.96;100861.69;5005893;28;20047;-58
2023/03/05 07:19:34;;;;;;;5.80;1.00;;;;;;;1.52;65.01;100857.44;5002187;28;20057;-59
2023/03/05 07:22:00;;;;;;;4.45;0.90;;;;;;;1.44;65.64;100856.72;4999485;28;20572;-57
2023/03/05 07:24:28;;;;;;;9.68;1.20;;;;;;;1.44;65.79;100856.72;5001657;28;20142;-58
2023/03/05 07:26:58;;;;;;;4.10;0.95;;;;;;;1.44;66.05;100861.06;5002723;28;20065;-56
2023/03/05 07:29:25;;;;;;;8.95;1.10;;;;;;;1.45;66.31;100863.59;5011056;28;20106;-56
2023/03/05 07:31:51;;;;;;;3.67;1.17;;;;;;;1.48;66.56;100873.94;5004776;28;20032;-58
2023/03/05 07:34:16;;;;;;;8.70;1.85;;;;;;;1.54;66.27;100864.34;5004482;28;20047;-57
2023/03/05 07:36:42;;;;;;;5.80;1.30;;;;;;;1.58;66.24;100860.81;5003432;28;20053;-59
2023/03/05 07:39:10;;;;;;;5.72;1.35;;;;;;;1.62;66.45;100854.66;4998359;28;20048;-58
2023/03/05 07:41:35;;;;;;;5.90;1.05;;;;;;;1.65;66.61;100852.03;4998486;28;20502;-56
2023/03/05 07:44:26;;;;;;;10.00;1.38;;;;;;;1.72;66.88;100851.03;5005237;28;20164;-58
2023/03/05 07:46:52;;;;;;;13.80;2.35;;;;;;;1.81;66.93;100855.19;5006039;28;20033;-58
2023/03/05 07:49:17;;;;;;;9.35;1.40;;;;;;;1.93;66.68;100848.88;5006523;28;20033;-56
2023/03/05 07:51:43;;;;;;;5.53;1.40;;;;;;;2.10;66.30;100848.56;5001616;28;20098;-55
2023/03/05 07:54:09;;;;;;;9.55;1.73;;;;;;;2.24;65.97;100845.66;4996259;28;20046;-57
2023/03/05 07:56:35;;;;;;;3.50;1.52;;;;;;;2.32;65.71;100851.56;5001704;28;20975;-59
2023/03/05 07:59:03;;;;;;;8.02;1.55;;;;;;;2.40;65.57;100854.81;5001239;28;20046;-59
2023/03/05 08:01:30;;;;;;;8.25;1.25;;;;;;;2.35;65.45;100861.84;4999516;28;20483;-56
2023/03/05 08:03:56;;;;;;;4.68;1.10;;;;;;;2.21;65.47;100858.69;5008124;28;20047;-58
2023/03/05 08:06:22;;;;;;;6.95;1.33;;;;;;;2.05;65.93;100853.81;4998976;28;20044;-59
2023/03/05 08:08:47;;;;;;;7.15;1.30;;;;;;;1.90;66.41;100859.31;5000462;28;20048;-55
2023/03/05 08:11:14;;;;;;;6.10;1.40;;;;;;;1.79;66.48;100869.94;5006020;28;20714;-58
2023/03/05 08:13:40;;;;;;;8.13;1.25;;;;;;;1.71;66.46;100859.69;5000516;28;20580;-58
2023/03/05 08:16:13;;;;;;;8.85;2.53;;;;;;;1.65;66.49;100872.78;5008307;28;20491;-56
2023/03/05 08:18:38;;;;;;;5.25;1.30;;;;;;;1.61;66.73;100858.16;5006539;28;20465;-56
2023/03/05 08:21:04;;;;;;;6.78;1.40;;;;;;;1.59;66.63;100863.38;5003637;28;20057;-55
2023/03/05 08:23:30;;;;;;;10.52;1.23;;;;;;;1.60;66.70;100870.28;5002209;28;20155;-56
2023/03/05 08:25:56;;;;;;;4.25;1.10;;;;;;;1.61;66.90;100864.19;5001320;28;20048;-56
2023/03/05 08:28:21;;;;;;;10.25;2.47;;;;;;;1.62;66.56;100859.84;5000035;28;20044;-55
2023/03/05 08:30:48;;;;;;;7.20;1.23;;;;;;;1.63;66.41;100854.66;4999080;28;20103;-57
2023/03/05 08:33:16;;;;;;;3.60;0.90;;;;;;;1.64;66.59;100863.28;4996530;28;20164;-54
2023/03/05 08:35:42;;;;;;;2.70;1.17;;;;;;;1.69;66.41;100856.28;5004302;28;20136;-55
2023/03/05 08:38:07;;;;;;;3.50;1.15;;;;;;;1.74;66.15;100845.81;4998125;28;20171;-55
2023/03/05 08:40:33;;;;;;;4.43;1.00;;;;;;;1.76;66.09;100837.09;4997083;28;20081;-55
2023/03/05 08:42:58;;;;;;;3.63;0.80;;;;;;;1.76;65.60;100863.03;5007519;28;20030;-60
2023/03/05 08:45:26;;;;;;;7.07;1.17;;;;;;;1.77;65.53;100843.16;5009614;28;20029;-59
2023/03/05 08:47:53;;;;;;;7.07;1.80;;;;;;;1.78;65.35;100853.50;4998319;28;20029;-60
2023/03/05 08:50:21;;;;;;;4.10;1.73;;;;;;;1.78;65.05;100840.53;5007159;28;20034;-57
2023/03/05 08:52:46;;;;;;;4.93;1.25;;;;;;;1.82;65.05;100846.50;5004624;28;20627;-59
2023/03/05 08:55:12;;;;;;;7.90;1.30;;;;;;;1.87;64.80;100838.66;5007205;28;20030;-57
2023/03/05 08:57:37;;;;;;;7.25;1.17;;;;;;;1.91;64.77;100858.44;5008237;28;20033;-61
2023/03/05 09:00:03;;;;;;;5.32;1.75;;;;;;;1.93;63.42;100834.19;5005162;28;20094;-58
2023/03/05 09:02:28;;;;;;;4.88;1.23;;;;;;;2.00;63.67;100840.09;5003065;28;20054;-57
2023/03/05 09:04:54;;;;;;;2.88;1.13;;;;;;;2.03;62.59;100860.81;5001613;28;20143;-53
2023/03/05 09:07:19;;;;;;;3.30;0.45;;;;;;;2.04;61.10;100865.09;5010387;28;20045;-59
2023/03/05 09:09:45;;;;;;;5.00;0.77;;;;;;;2.06;60.94;100839.97;5011191;28;20046;-55
2023/03/05 09:12:12;;;;;;;1.30;0.60;;;;;;;2.09;60.04;100839.91;5005534;28;20082;-56
2023/03/05 09:14:39;;;;;;;5.32;1.42;;;;;;;2.13;60.29;100825.97;5008851;28;20047;-60
2023/03/05 09:17:04;;;;;;;6.57;0.77;;;;;;;2.16;61.00;100825.06;5005263;28;20526;-57
2023/03/05 09:19:30;;;;;;;2.95;0.57;;;;;;;2.20;60.66;100823.22;5003107;28;20029;-57
2023/03/05 09:21:56;;;;;;;4.93;0.80;;;;;;;2.25;59.68;100829.19;4997721;28;20038;-60
2023/03/05 09:24:21;;;;;;;4.95;0.80;;;;;;;2.32;59.87;100830.78;5001931;28;20512;-58
2023/03/05 09:26:47;;;;;;;4.88;0.90;;;;;;;2.43;59.39;100822.72;5006751;28;20048;-59
2023/03/05 09:29:12;;;;;;;5.22;1.30;;;;;;;2.52;59.61;100821.66;5001941;28;20620;-59
2023/03/05 09:31:38;;;;;;;5.70;1.45;;;;;;;2.62;57.97;100824.91;5003531;28;20032;-53
2023/03/05 09:34:05;;;;;;;4.25;0.95;;;;;;;2.70;57.49;100842.03;5001538;28;20030;-56
2023/03/05 09:36:31;;;;;;;1.13;0.50;;;;;;;2.73;56.38;100836.78;5003759;28;20051;-55
2023/03/05 09:38:58;;;;;;;2.90;0.68;;;;;;;2.73;55.60;100831.56;5002573;28;20044;-57
2023/03/05 09:42:02;;;;;;;2.38;0.63;;;;;;;2.71;53.08;100833.34;4999554;28;20710;-58
2023/03/05 09:44:50;;;;;;;3.22;0.50;;;;;;;2.82;54.05;100814.03;4979609;28;20630;-57
2023/03/05 09:47:43;;;;;;;10.77;1.25;;;;;;;3.08;53.86;100829.00;5007766;28;20025;-58
2023/03/05 09:50:08;;;;;;;;;;;;;;;3.30;54.27;100824.09;4996710;28;20561;-56
2023/03/05 09:52:49;;;;;;;4.53;0.90;;;;;;;3.43;54.55;100831.56;5007370;28;19914;-56
2023/03/05 09:55:42;;;;;;;3.30;0.60;;;;;;;3.42;54.35;100822.94;4995556;28;20030;-59
2023/03/05 09:58:30;;;;;;;5.85;0.90;;;;;;;3.48;55.20;100824.50;5011354;28;20073;-57
2023/03/05 10:01:20;;;;;;;4.90;0.98;;;;;;;3.55;54.85;100826.06;5000806;28;20033;-54
2023/03/05 10:04:10;;;;;;;3.95;0.95;;;;;;;3.54;55.02;100834.75;5001859;28;20105;-59
2023/03/05 10:06:46;;;;;;;4.30;1.00;;;;;;;3.51;55.88;100832.25;5000063;28;20040;-60
2023/03/05 10:09:41;;;;;;;3.60;0.60;;;;;;;3.34;53.22;100823.13;5000524;28;20034;-56
2023/03/05 10:12:34;;;;;;;1.95;0.70;;;;;;;3.32;54.72;100830.13;4999684;28;20036;-58
2023/03/05 10:15:01;;;;;;;;;;;;;;;3.26;54.33;100834.63;4996282;28;20026;-55
2023/03/05 10:17:27;;;;;;;4.00;0.90;;;;;;;3.16;55.49;100827.06;4999582;28;19956;-53
2023/03/05 10:20:14;;;;;;;2.78;1.00;;;;;;;2.94;53.80;100823.28;4997896;28;20156;-54
2023/03/05 10:23:20;;;;;;;4.47;0.93;;;;;;;2.71;54.51;100828.16;5012907;28;20098;-55
2023/03/05 10:26:36;;;;;;;5.28;0.93;;;;;;;2.57;55.30;100817.22;4991538;28;20056;-56
2023/03/05 10:29:23;;;;;;;3.92;1.13;;;;;;;2.56;55.61;100815.53;4948934;28;20128;-59
2023/03/05 10:32:04;;;;;;;6.65;1.75;;;;;;;2.61;56.49;100816.28;4952477;28;20039;-57
2023/03/05 10:34:43;;;;;;;5.00;1.25;;;;;;;2.66;56.26;100814.41;5002294;28;20115;-55
2023/03/05 10:37:37;;;;;;;2.20;0.68;;;;;;;2.76;55.10;100819.41;5004888;28;20105;-60
2023/03/05 10:40:20;;;;;;;5.63;1.00;;;;;;;2.84;54.33;100796.66;5009174;28;20492;-58
2023/03/05 10:43:14;;;;;;;11.60;1.15;;;;;;;3.03;53.78;100797.06;5004201;28;20044;-54
2023/03/05 10:45:46;;;;;;;5.55;0.95;;;;;;;3.35;53.56;100798.84;5010402;28;20042;-55
2023/03/05 10:48:26;;;;;;;2.20;0.90;;;;;;;3.56;51.72;100806.94;5009287;28;20029;-54
2023/03/05 10:51:11;;;;;;;2.63;1.02;;;;;;;3.75;48.28;100803.81;5009114;28;20113;-55
2023/03/05 10:53:51;;;;;;;3.30;0.80;;;;;;;3.89;50.13;100796.47;5009548;28;20108;-56
2023/03/05 10:56:20;;;;;;;1.27;0.30;;;;;;;3.91;48.04;100807.69;5009034;28;20032;-54
2023/03/05 10:58:46;;;;;;;2.58;0.60;;;;;;;3.92;49.51;100787.75;5006250;28;20029;-53
2023/03/05 11:01:11;;;;;;;1.10;0.60;;;;;;;3.92;49.66;100814.59;4992245;28;20080;-58
2023/03/05 11:03:53;;;;;;;1.65;0.73;;;;;;;3.85;47.95;100787.06;4996732;28;20041;-57
2023/03/05 11:06:38;;;;;;;3.63;0.50;;;;;;;3.87;47.80;100790.44;4998472;28;20523;-55
2023/03/05 11:09:33;;;;;;;3.30;1.05;;;;;;;3.77;47.85;100786.41;4998611;28;20029;-56
2023/03/05 11:12:16;;;;;;;3.65;0.88;;;;;;;3.69;49.35;100783.19;5004953;28;20030;-58
2023/03/05 11:14:45;;;;;;;5.88;0.80;;;;;;;3.64;49.50;100788.50;4996538;28;20059;-57
2023/03/05 11:17:31;;;;;;;2.03;0.95;;;;;;;3.66;48.88;100792.78;5000991;28;20432;-59
2023/03/05 11:20:16;;;;;;;3.50;1.58;;;;;;;3.81;48.94;100785.44;4999720;28;20029;-60
2023/03/05 11:22:42;;;;;;;4.85;0.88;;;;;;;4.00;49.61;100779.69;5008157;28;20025;-57
2023/03/05 11:25:15;;;;;;;2.00;0.80;;;;;;;4.02;47.91;100778.75;5007995;28;20523;-57
2023/03/05 11:27:54;;;;;;;2.15;0.70;;;;;;;4.06;47.32;100776.91;5004613;28;20029;-60
2023/03/05 11:30:25;;;;;;;2.88;0.50;;;;;;;4.04;48.43;100776.09;5001933;28;20052;-59
2023/03/05 11:33:16;;;;;;;3.72;0.95;;;;;;;4.01;47.62;100773.59;5000686;28;20033;-56
2023/03/05 11:35:43;;;;;;;0.85;0.40;;;;;;;4.09;48.75;100774.19;5006971;28;20151;-56
2023/03/05 11:38:26;;;;;;;3.97;0.98;;;;;;;4.14;49.02;100777.53;5001163;28;20038;-58
2023/03/05 11:40:56;;;;;;;4.35;0.95;;;;;;;4.16;50.08;100773.09;5003861;28;20033;-57
2023/03/05 11:43:24;;;;;;;3.63;0.75;;;;;;;4.13;50.24;100775.81;5005312;28;20044;-57